Time,TemperatureF,DewpointF,PressureIn,WindDirection,WindDirectionDegrees,WindSpeedMPH,WindSpeedGustMPH,Humidity,HourlyPrecipIn,Conditions,Clouds,dailyrainin,SoftwareType,DateUTC
2013-03-06 00:00:00,21.4,16.2,30.46,NW,313,0.0,0.0,80,0.00,,,0.00,VWS V14.00,2013-03-06 06:00:00,
2013-03-06 00:05:00,21.2,15.7,30.46,NW,314,0.0,0.0,79,0.00,,,0.00,VWS V14.00,2013-03-06 06:05:00,
2013-03-06 00:10:00,21.0,15.2,30.46,NW,314,0.0,0.0,78,0.00,,,0.00,VWS V14.00,2013-03-06 06:10:00,
2013-03-06 00:15:00,20.9,15.4,30.46,NW,314,0.0,0.0,79,0.00,,,0.00,VWS V14.00,2013-03-06 06:15:00,
2013-03-06 00:20:00,21.2,16.3,30.46,NW,314,0.0,0.0,81,0.00,,,0.00,VWS V14.00,2013-03-06 06:20:00,
2013-03-06 00:25:00,21.0,15.8,30.46,NW,304,0.0,0.0,80,0.00,,,0.00,VWS V14.00,2013-03-06 06:25:00,
2013-03-06 00:30:00,20.7,15.5,30.47,NW,305,0.0,3.0,80,0.00,,,0.00,VWS V14.00,2013-03-06 06:30:00,
2013-03-06 00:35:00,20.9,16.0,30.47,NW,307,0.0,1.0,81,0.00,,,0.00,VWS V14.00,2013-03-06 06:35:00,
2013-03-06 00:40:00,21.1,16.5,30.47,NW,306,0.0,1.0,82,0.00,,,0.00,VWS V14.00,2013-03-06 06:40:00,
2013-03-06 00:45:00,20.9,16.0,30.47,NW,307,0.0,1.0,81,0.00,,,0.00,VWS V14.00,2013-03-06 06:45:00,
2013-03-06 00:50:00,20.6,15.4,30.46,NW,309,0.0,1.0,80,0.00,,,0.00,VWS V14.00,2013-03-06 06:50:00,
2013-03-06 00:55:00,20.4,15.5,30.46,North,355,0.0,1.0,81,0.00,,,0.00,VWS V14.00,2013-03-06 06:55:00,
2013-03-06 01:00:00,20.2,15.0,30.46,NNW,338,0.0,1.0,80,0.00,,,0.00,VWS V14.00,2013-03-06 07:00:00,
2013-03-06 01:05:00,19.9,14.7,30.46,NNW,336,0.0,0.0,80,0.00,,,0.00,VWS V14.00,2013-03-06 07:05:00,
2013-03-06 01:10:00,19.7,14.5,30.46,NW,317,0.0,0.0,80,0.00,,,0.00,VWS V14.00,2013-03-06 07:10:00,
2013-03-06 01:15:00,19.8,15.2,30.46,North,355,0.0,0.0,82,0.00,,,0.00,VWS V14.00,2013-03-06 07:15:00,
2013-03-06 01:20:00,19.7,14.8,30.47,NNW,337,0.0,0.0,81,0.00,,,0.00,VWS V14.00,2013-03-06 07:20:00,
2013-03-06 01:25:00,19.5,14.6,30.47,NW,305,0.0,0.0,81,0.00,,,0.00,VWS V14.00,2013-03-06 07:25:00,
2013-03-06 01:30:00,19.4,14.5,30.47,NW,305,0.0,0.0,81,0.00,,,0.00,VWS V14.00,2013-03-06 07:30:00,
2013-03-06 01:35:00,19.5,14.9,30.47,NW,326,0.0,0.0,82,0.00,,,0.00,VWS V14.00,2013-03-06 07:35:00,
2013-03-06 01:40:00,19.2,14.3,30.47,NW,326,0.0,0.0,81,0.00,,,0.00,VWS V14.00,2013-03-06 07:40:00,
2013-03-06 01:45:00,18.9,14.0,30.47,NNE,32,0.0,1.0,81,0.00,,,0.00,VWS V14.00,2013-03-06 07:45:00,
2013-03-06 01:50:00,18.7,13.9,30.47,NNE,32,0.0,1.0,81,0.00,,,0.00,VWS V14.00,2013-03-06 07:50:00,
2013-03-06 01:55:00,18.5,13.6,30.48,NNE,32,0.0,1.0,81,0.00,,,0.00,VWS V14.00,2013-03-06 07:55:00,
2013-03-06 02:00:00,18.3,13.5,30.48,NNE,32,0.0,1.0,81,0.00,,,0.00,VWS V14.00,2013-03-06 08:00:00,
2013-03-06 02:05:00,18.3,13.7,30.48,NNE,32,0.0,0.0,82,0.00,,,0.00,VWS V14.00,2013-03-06 08:05:00,
2013-03-06 02:10:00,18.3,13.7,30.48,North,355,0.0,0.0,82,0.00,,,0.00,VWS V14.00,2013-03-06 08:10:00,
2013-03-06 02:15:00,18.0,13.4,30.48,North,355,0.0,0.0,82,0.00,,,0.00,VWS V14.00,2013-03-06 08:15:00,
2013-03-06 02:20:00,17.8,13.2,30.48,North,355,0.0,0.0,82,0.00,,,0.00,VWS V14.00,2013-03-06 08:20:00,
2013-03-06 02:25:00,17.7,13.1,30.48,North,355,0.0,0.0,82,0.00,,,0.00,VWS V14.00,2013-03-06 08:25:00,
2013-03-06 02:30:00,17.7,13.1,30.48,North,355,0.0,0.0,82,0.00,,,0.00,VWS V14.00,2013-03-06 08:30:00,
2013-03-06 02:35:00,17.5,12.9,30.48,North,355,0.0,0.0,82,0.00,,,0.00,VWS V14.00,2013-03-06 08:35:00,
2013-03-06 02:40:00,17.3,12.8,30.48,North,355,0.0,0.0,82,0.00,,,0.00,VWS V14.00,2013-03-06 08:40:00,
2013-03-06 02:45:00,17.2,12.7,30.47,North,355,0.0,0.0,82,0.00,,,0.00,VWS V14.00,2013-03-06 08:45:00,
2013-03-06 02:50:00,17.0,12.5,30.47,North,355,0.0,0.0,82,0.00,,,0.00,VWS V14.00,2013-03-06 08:50:00,
2013-03-06 02:55:00,16.8,12.3,30.47,North,355,0.0,0.0,82,0.00,,,0.00,VWS V14.00,2013-03-06 08:55:00,
2013-03-06 03:00:00,16.7,12.2,30.48,North,355,0.0,0.0,82,0.00,,,0.00,VWS V14.00,2013-03-06 09:00:00,
2013-03-06 03:05:00,16.6,12.1,30.48,North,355,0.0,0.0,82,0.00,,,0.00,VWS V14.00,2013-03-06 09:05:00,
2013-03-06 03:10:00,16.5,12.2,30.48,North,355,0.0,0.0,83,0.00,,,0.00,VWS V14.00,2013-03-06 09:10:00,
2013-03-06 03:15:00,16.5,12.2,30.48,North,355,0.0,0.0,83,0.00,,,0.00,VWS V14.00,2013-03-06 09:15:00,
2013-03-06 03:20:00,16.5,12.2,30.47,North,355,0.0,0.0,83,0.00,,,0.00,VWS V14.00,2013-03-06 09:20:00,
2013-03-06 03:25:00,16.4,12.1,30.47,North,355,0.0,0.0,83,0.00,,,0.00,VWS V14.00,2013-03-06 09:25:00,
2013-03-06 03:30:00,16.4,12.4,30.47,North,355,0.0,0.0,84,0.00,,,0.00,VWS V14.00,2013-03-06 09:30:00,
2013-03-06 03:35:00,16.6,12.6,30.48,North,355,0.0,0.0,84,0.00,,,0.00,VWS V14.00,2013-03-06 09:35:00,
2013-03-06 03:40:00,16.5,12.5,30.48,North,355,0.0,0.0,84,0.00,,,0.00,VWS V14.00,2013-03-06 09:40:00,
2013-03-06 03:45:00,16.5,12.8,30.48,North,355,0.0,0.0,85,0.00,,,0.00,VWS V14.00,2013-03-06 09:45:00,
2013-03-06 03:50:00,16.7,13.0,30.48,North,355,0.0,0.0,85,0.00,,,0.00,VWS V14.00,2013-03-06 09:50:00,
2013-03-06 03:55:00,16.7,13.0,30.48,North,355,0.0,0.0,85,0.00,,,0.00,VWS V14.00,2013-03-06 09:55:00,
2013-03-06 04:00:00,16.6,12.9,30.48,North,355,0.0,0.0,85,0.00,,,0.00,VWS V14.00,2013-03-06 10:00:00,
2013-03-06 04:05:00,16.4,12.7,30.48,North,355,0.0,0.0,85,0.00,,,0.00,VWS V14.00,2013-03-06 10:05:00,
2013-03-06 04:10:00,16.3,12.6,30.48,North,355,0.0,0.0,85,0.00,,,0.00,VWS V14.00,2013-03-06 10:10:00,
2013-03-06 04:15:00,16.3,12.6,30.48,North,355,0.0,0.0,85,0.00,,,0.00,VWS V14.00,2013-03-06 10:15:00,
2013-03-06 04:20:00,16.5,13.1,30.48,North,355,0.0,0.0,86,0.00,,,0.00,VWS V14.00,2013-03-06 10:20:00,
2013-03-06 04:25:00,17.1,13.9,30.48,North,355,0.0,0.0,87,0.00,,,0.00,VWS V14.00,2013-03-06 10:25:00,
2013-03-06 04:30:00,17.3,13.8,30.47,North,355,0.0,0.0,86,0.00,,,0.00,VWS V14.00,2013-03-06 10:30:00,
2013-03-06 04:35:00,17.2,13.7,30.48,North,355,0.0,0.0,86,0.00,,,0.00,VWS V14.00,2013-03-06 10:35:00,
2013-03-06 04:40:00,17.0,13.5,30.47,North,355,0.0,0.0,86,0.00,,,0.00,VWS V14.00,2013-03-06 10:40:00,
2013-03-06 04:45:00,16.9,13.4,30.48,North,355,0.0,0.0,86,0.00,,,0.00,VWS V14.00,2013-03-06 10:45:00,
2013-03-06 04:50:00,16.8,13.4,30.47,North,355,0.0,0.0,86,0.00,,,0.00,VWS V14.00,2013-03-06 10:50:00,
2013-03-06 04:55:00,16.8,13.4,30.48,North,355,0.0,0.0,86,0.00,,,0.00,VWS V14.00,2013-03-06 10:55:00,
2013-03-06 05:00:00,16.9,13.4,30.48,North,355,0.0,0.0,86,0.00,,,0.00,VWS V14.00,2013-03-06 11:00:00,
2013-03-06 05:05:00,17.0,13.5,30.48,North,10,0.0,0.0,86,0.00,,,0.00,VWS V14.00,2013-03-06 11:05:00,
2013-03-06 05:10:00,17.2,13.7,30.48,NNE,21,0.0,1.0,86,0.00,,,0.00,VWS V14.00,2013-03-06 11:10:00,
2013-03-06 05:14:00,17.4,13.9,30.47,NNE,25,0.0,3.0,86,0.00,,,0.00,VWS V14.00,2013-03-06 11:14:00,
2013-03-06 05:19:00,17.6,14.1,30.48,NNE,28,0.0,3.0,86,0.00,,,0.00,VWS V14.00,2013-03-06 11:19:00,
2013-03-06 05:25:00,17.7,14.2,30.48,NNE,28,0.0,3.0,86,0.00,,,0.00,VWS V14.00,2013-03-06 11:25:00,
2013-03-06 05:30:00,17.8,14.3,30.48,NE,55,0.0,3.0,86,0.00,,,0.00,VWS V14.00,2013-03-06 11:30:00,
2013-03-06 05:34:00,17.9,14.4,30.48,NE,37,0.0,3.0,86,0.00,,,0.00,VWS V14.00,2013-03-06 11:34:00,
2013-03-06 05:40:00,18.0,14.5,30.48,NE,37,0.0,0.0,86,0.00,,,0.00,VWS V14.00,2013-03-06 11:40:00,
2013-03-06 05:44:00,18.1,14.4,30.48,NE,34,1.0,2.0,85,0.00,,,0.00,VWS V14.00,2013-03-06 11:44:00,
2013-03-06 05:49:00,18.2,14.5,30.48,East,80,1.0,2.0,85,0.00,,,0.00,VWS V14.00,2013-03-06 11:49:00,
2013-03-06 05:54:00,18.3,14.6,30.48,ENE,63,0.0,2.0,85,0.00,,,0.00,VWS V14.00,2013-03-06 11:54:00,
2013-03-06 05:59:00,18.4,14.6,30.48,North,360,0.0,2.0,85,0.00,,,0.00,VWS V14.00,2013-03-06 11:59:00,
2013-03-06 06:04:00,18.4,14.6,30.48,ESE,102,0.0,4.0,85,0.00,,,0.00,VWS V14.00,2013-03-06 12:04:00,
2013-03-06 06:09:00,18.5,14.8,30.48,NE,56,2.0,5.0,85,0.00,,,0.00,VWS V14.00,2013-03-06 12:09:00,
2013-03-06 06:14:00,18.6,14.9,30.48,SE,132,0.0,5.0,85,0.00,,,0.00,VWS V14.00,2013-03-06 12:14:00,
2013-03-06 06:19:00,18.7,14.9,30.48,East,97,1.0,5.0,85,0.00,,,0.00,VWS V14.00,2013-03-06 12:19:00,
2013-03-06 06:24:00,18.7,14.9,30.47,ESE,109,1.0,5.0,85,0.00,,,0.00,VWS V14.00,2013-03-06 12:24:00,
2013-03-06 06:29:00,18.6,14.9,30.48,ESE,106,3.0,5.0,85,0.00,,,0.00,VWS V14.00,2013-03-06 12:29:00,
2013-03-06 06:34:00,18.5,14.8,30.48,ESE,103,1.0,6.0,85,0.00,,,0.00,VWS V14.00,2013-03-06 12:34:00,
2013-03-06 06:39:00,18.5,14.8,30.48,East,88,0.0,1.0,85,0.00,,,0.00,VWS V14.00,2013-03-06 12:39:00,
2013-03-06 06:44:00,18.5,14.8,30.48,East,88,0.0,1.0,85,0.00,,,0.00,VWS V14.00,2013-03-06 12:44:00,
2013-03-06 06:49:00,18.5,14.8,30.48,East,98,3.0,5.0,85,0.00,,,0.00,VWS V14.00,2013-03-06 12:49:00,
2013-03-06 06:54:00,18.5,14.8,30.48,East,82,2.0,5.0,85,0.00,,,0.00,VWS V14.00,2013-03-06 12:54:00,
2013-03-06 06:59:00,18.5,14.8,30.48,East,99,6.0,6.0,85,0.00,,,0.00,VWS V14.00,2013-03-06 12:59:00,
2013-03-06 07:04:00,18.5,14.8,30.47,ESE,115,1.0,6.0,85,0.00,,,0.00,VWS V14.00,2013-03-06 13:04:00,
2013-03-06 07:09:00,18.5,14.8,30.47,East,83,4.0,5.0,85,0.00,,,0.00,VWS V14.00,2013-03-06 13:09:00,
2013-03-06 07:14:00,18.4,14.6,30.47,East,82,6.0,9.0,85,0.00,,,0.00,VWS V14.00,2013-03-06 13:14:00,
2013-03-06 07:19:00,18.3,14.6,30.47,ENE,75,3.0,9.0,85,0.00,,,0.00,VWS V14.00,2013-03-06 13:19:00,
2013-03-06 07:24:00,18.4,14.6,30.47,East,96,1.0,9.0,85,0.00,,,0.00,VWS V14.00,2013-03-06 13:24:00,
2013-03-06 07:29:00,18.4,14.6,30.47,East,86,4.0,11.0,85,0.00,,,0.00,VWS V14.00,2013-03-06 13:29:00,
2013-03-06 07:34:00,18.4,14.6,30.47,ENE,71,3.0,11.0,85,0.00,,,0.00,VWS V14.00,2013-03-06 13:34:00,
2013-03-06 07:39:00,18.4,14.6,30.48,ESE,117,2.0,4.0,85,0.00,,,0.00,VWS V14.00,2013-03-06 13:39:00,
2013-03-06 07:44:00,18.5,14.8,30.47,East,84,5.0,7.0,85,0.00,,,0.00,VWS V14.00,2013-03-06 13:44:00,
2013-03-06 07:49:00,18.4,14.6,30.47,East,80,3.0,10.0,85,0.00,,,0.00,VWS V14.00,2013-03-06 13:49:00,
2013-03-06 07:54:00,18.3,14.6,30.48,ENE,62,4.0,10.0,85,0.00,,,0.00,VWS V14.00,2013-03-06 13:54:00,
2013-03-06 07:59:00,18.3,14.6,30.48,NE,55,1.0,10.0,85,0.00,,,0.00,VWS V14.00,2013-03-06 13:59:00,
2013-03-06 08:04:00,18.4,14.6,30.47,ENE,78,9.0,10.0,85,0.00,,,0.00,VWS V14.00,2013-03-06 14:04:00,
2013-03-06 08:09:00,18.5,15.0,30.48,ESE,121,2.0,11.0,86,0.00,,,0.00,VWS V14.00,2013-03-06 14:09:00,
2013-03-06 08:14:00,18.7,15.2,30.48,ESE,109,1.0,11.0,86,0.00,,,0.00,VWS V14.00,2013-03-06 14:14:00,
2013-03-06 08:19:00,18.9,15.4,30.48,ENE,68,5.0,11.0,86,0.00,,,0.00,VWS V14.00,2013-03-06 14:19:00,
2013-03-06 08:24:00,19.0,15.5,30.48,SE,134,4.0,11.0,86,0.00,,,0.00,VWS V14.00,2013-03-06 14:24:00,
2013-03-06 08:29:00,19.1,15.6,30.48,ENE,66,4.0,11.0,86,0.00,,,0.00,VWS V14.00,2013-03-06 14:29:00,
2013-03-06 08:34:00,19.4,15.9,30.48,ESE,106,4.0,11.0,86,0.00,,,0.00,VWS V14.00,2013-03-06 14:34:00,
2013-03-06 08:39:00,19.4,15.9,30.48,ESE,120,3.0,7.0,86,0.00,,,0.00,VWS V14.00,2013-03-06 14:39:00,
2013-03-06 08:44:00,19.5,16.0,30.48,ESE,106,0.0,10.0,86,0.00,,,0.00,VWS V14.00,2013-03-06 14:44:00,
2013-03-06 08:49:00,19.5,15.7,30.49,ENE,67,1.0,11.0,85,0.00,,,0.00,VWS V14.00,2013-03-06 14:49:00,
2013-03-06 08:54:00,19.7,16.2,30.49,ESE,115,0.0,11.0,86,0.00,,,0.00,VWS V14.00,2013-03-06 14:54:00,
2013-03-06 08:59:00,19.7,15.9,30.50,ESE,122,3.0,11.0,85,0.00,,,0.00,VWS V14.00,2013-03-06 14:59:00,
2013-03-06 09:04:00,19.8,16.0,30.50,SE,128,0.0,11.0,85,0.00,,,0.00,VWS V14.00,2013-03-06 15:04:00,
2013-03-06 09:09:00,20.0,16.2,30.50,East,101,0.0,0.0,85,0.00,,,0.00,VWS V14.00,2013-03-06 15:09:00,
2013-03-06 09:14:00,20.2,16.4,30.50,SE,128,0.0,6.0,85,0.00,,,0.00,VWS V14.00,2013-03-06 15:14:00,
2013-03-06 09:19:00,20.3,16.5,30.50,ESE,123,0.0,6.0,85,0.00,,,0.00,VWS V14.00,2013-03-06 15:19:00,
2013-03-06 09:24:00,20.4,16.6,30.50,SE,124,0.0,6.0,85,0.00,,,0.00,VWS V14.00,2013-03-06 15:24:00,
2013-03-06 09:29:00,20.6,16.8,30.50,SSW,200,0.0,6.0,85,0.00,,,0.00,VWS V14.00,2013-03-06 15:29:00,
2013-03-06 09:34:00,20.9,17.1,30.50,SSE,148,0.0,6.0,85,0.00,,,0.00,VWS V14.00,2013-03-06 15:34:00,
2013-03-06 09:39:00,21.0,16.9,30.50,ESE,115,2.0,4.0,84,0.00,,,0.00,VWS V14.00,2013-03-06 15:39:00,
2013-03-06 09:44:00,21.1,17.0,30.50,ESE,103,0.0,4.0,84,0.00,,,0.00,VWS V14.00,2013-03-06 15:44:00,
2013-03-06 09:49:00,21.4,17.3,30.50,East,101,0.0,4.0,84,0.00,,,0.00,VWS V14.00,2013-03-06 15:49:00,
2013-03-06 09:54:00,21.6,17.5,30.50,East,96,1.0,4.0,84,0.00,,,0.00,VWS V14.00,2013-03-06 15:54:00,
2013-03-06 09:59:00,21.6,17.2,30.50,SE,126,1.0,5.0,83,0.00,,,0.00,VWS V14.00,2013-03-06 15:59:00,
2013-03-06 10:04:00,21.9,17.5,30.50,East,90,0.0,5.0,83,0.00,,,0.00,VWS V14.00,2013-03-06 16:04:00,
2013-03-06 10:09:00,22.4,18.0,30.49,SSE,157,0.0,5.0,83,0.00,,,0.00,VWS V14.00,2013-03-06 16:09:00,
2013-03-06 10:14:00,22.6,17.7,30.49,SE,131,0.0,5.0,81,0.00,,,0.00,VWS V14.00,2013-03-06 16:14:00,
2013-03-06 10:19:00,22.6,17.4,30.50,SE,130,0.0,5.0,80,0.00,,,0.00,VWS V14.00,2013-03-06 16:19:00,
2013-03-06 10:24:00,22.7,17.5,30.49,SE,130,0.0,5.0,80,0.00,,,0.00,VWS V14.00,2013-03-06 16:24:00,
2013-03-06 10:29:00,23.5,18.2,30.49,SE,135,1.0,5.0,80,0.00,,,0.00,VWS V14.00,2013-03-06 16:29:00,
2013-03-06 10:34:00,24.4,18.8,30.49,SE,132,0.0,5.0,79,0.00,,,0.00,VWS V14.00,2013-03-06 16:34:00,
2013-03-06 10:39:00,25.3,19.1,30.49,East,98,0.0,3.0,77,0.00,,,0.00,VWS V14.00,2013-03-06 16:39:00,
2013-03-06 10:44:00,26.0,18.9,30.49,ENE,78,3.0,7.0,74,0.00,,,0.00,VWS V14.00,2013-03-06 16:44:00,
2013-03-06 10:49:00,26.2,18.7,30.49,ESE,117,1.0,7.0,73,0.00,,,0.00,VWS V14.00,2013-03-06 16:49:00,
2013-03-06 10:54:00,26.2,18.7,30.49,ESE,102,0.0,7.0,73,0.00,,,0.00,VWS V14.00,2013-03-06 16:54:00,
2013-03-06 10:59:00,26.2,18.4,30.49,SE,125,0.0,7.0,72,0.00,,,0.00,VWS V14.00,2013-03-06 16:59:00,
2013-03-06 11:04:00,26.8,19.3,30.49,ESE,121,2.0,7.0,73,0.00,,,0.00,VWS V14.00,2013-03-06 17:04:00,
2013-03-06 11:09:00,27.1,19.3,30.49,East,96,0.0,5.0,72,0.00,,,0.00,VWS V14.00,2013-03-06 17:09:00,
2013-03-06 11:13:00,27.1,19.3,30.48,East,98,0.0,5.0,72,0.00,,,0.00,VWS V14.00,2013-03-06 17:13:00,
2013-03-06 11:18:00,27.4,18.9,30.48,South,179,0.0,6.0,70,0.00,,,0.00,VWS V14.00,2013-03-06 17:18:00,
2013-03-06 11:23:00,27.9,19.4,30.48,SSW,211,0.0,6.0,70,0.00,,,0.00,VWS V14.00,2013-03-06 17:23:00,
2013-03-06 11:28:00,28.4,19.5,30.48,ESE,115,0.0,6.0,69,0.00,,,0.00,VWS V14.00,2013-03-06 17:28:00,
2013-03-06 11:33:00,28.4,19.2,30.48,ESE,115,0.0,6.0,68,0.00,,,0.00,VWS V14.00,2013-03-06 17:33:00,
2013-03-06 11:38:00,28.9,19.7,30.47,SE,125,0.0,6.0,68,0.00,,,0.00,VWS V14.00,2013-03-06 17:38:00,
2013-03-06 11:43:00,29.5,19.9,30.47,South,190,4.0,6.0,67,0.00,,,0.00,VWS V14.00,2013-03-06 17:43:00,
2013-03-06 11:48:00,29.9,20.3,30.47,SE,124,0.0,6.0,67,0.00,,,0.00,VWS V14.00,2013-03-06 17:48:00,
2013-03-06 11:53:00,30.3,20.0,30.47,SSE,161,2.0,9.0,65,0.00,,,0.00,VWS V14.00,2013-03-06 17:53:00,
2013-03-06 11:58:00,29.8,19.5,30.47,South,181,0.0,9.0,65,0.00,,,0.00,VWS V14.00,2013-03-06 17:58:00,
2013-03-06 12:03:00,30.8,20.8,30.47,SSE,157,4.0,10.0,66,0.00,,,0.00,VWS V14.00,2013-03-06 18:03:00,
2013-03-06 12:08:00,30.9,20.5,30.46,SE,141,6.0,9.0,65,0.00,,,0.00,VWS V14.00,2013-03-06 18:08:00,
2013-03-06 12:13:00,31.0,20.3,30.46,East,95,3.0,9.0,64,0.00,,,0.00,VWS V14.00,2013-03-06 18:13:00,
2013-03-06 12:18:00,31.6,20.8,30.46,ESE,107,0.0,9.0,64,0.00,,,0.00,VWS V14.00,2013-03-06 18:18:00,
2013-03-06 12:23:00,32.1,20.9,30.45,SSE,159,0.0,9.0,63,0.00,,,0.00,VWS V14.00,2013-03-06 18:23:00,
2013-03-06 12:28:00,33.0,21.4,30.45,East,94,1.0,9.0,62,0.00,,,0.00,VWS V14.00,2013-03-06 18:28:00,
2013-03-06 12:33:00,32.8,20.1,30.45,ESE,117,0.0,9.0,59,0.00,,,0.00,VWS V14.00,2013-03-06 18:33:00,
2013-03-06 12:38:00,32.8,20.5,30.44,ESE,111,5.0,6.0,60,0.00,,,0.00,VWS V14.00,2013-03-06 18:38:00,
2013-03-06 12:43:00,33.0,20.6,30.44,ESE,117,3.0,6.0,60,0.00,,,0.00,VWS V14.00,2013-03-06 18:43:00,
2013-03-06 12:48:00,33.5,21.1,30.43,SSE,147,3.0,6.0,60,0.00,,,0.00,VWS V14.00,2013-03-06 18:48:00,
2013-03-06 12:53:00,33.7,20.9,30.43,ESE,107,2.0,9.0,59,0.00,,,0.00,VWS V14.00,2013-03-06 18:53:00,
2013-03-06 12:58:00,34.2,21.4,30.43,SSE,159,3.0,9.0,59,0.00,,,0.00,VWS V14.00,2013-03-06 18:58:00,
2013-03-06 13:03:00,34.4,21.6,30.42,ESE,122,3.0,9.0,59,0.00,,,0.00,VWS V14.00,2013-03-06 19:03:00,
2013-03-06 13:08:00,35.2,21.9,30.42,ENE,72,4.0,7.0,58,0.00,,,0.00,VWS V14.00,2013-03-06 19:08:00,
2013-03-06 13:13:00,35.7,22.0,30.41,ESE,106,3.0,7.0,57,0.00,,,0.00,VWS V14.00,2013-03-06 19:13:00,
2013-03-06 13:18:00,35.4,21.7,30.41,South,184,2.0,8.0,57,0.00,,,0.00,VWS V14.00,2013-03-06 19:18:00,
2013-03-06 13:23:00,35.1,21.8,30.41,South,186,4.0,8.0,58,0.00,,,0.00,VWS V14.00,2013-03-06 19:23:00,
2013-03-06 13:28:00,35.6,21.5,30.41,ESE,105,4.0,10.0,56,0.00,,,0.00,VWS V14.00,2013-03-06 19:28:00,
2013-03-06 13:33:00,36.0,22.3,30.40,SE,133,4.0,10.0,57,0.00,,,0.00,VWS V14.00,2013-03-06 19:33:00,
2013-03-06 13:38:00,36.1,22.8,30.40,SSE,148,0.0,0.0,58,0.00,,,0.00,VWS V14.00,2013-03-06 19:38:00,
2013-03-06 13:43:00,36.8,22.6,30.40,ESE,107,5.0,9.0,56,0.00,,,0.00,VWS V14.00,2013-03-06 19:43:00,
2013-03-06 13:48:00,37.2,22.1,30.39,SSE,157,2.0,9.0,54,0.00,,,0.00,VWS V14.00,2013-03-06 19:48:00,
2013-03-06 13:53:00,37.5,21.9,30.39,SSE,157,5.0,11.0,53,0.00,,,0.00,VWS V14.00,2013-03-06 19:53:00,
2013-03-06 13:58:00,37.5,21.9,30.38,SSE,152,0.0,11.0,53,0.00,,,0.00,VWS V14.00,2013-03-06 19:58:00,
2013-03-06 14:03:00,37.6,21.6,30.38,SE,140,0.0,11.0,52,0.00,,,0.00,VWS V14.00,2013-03-06 20:03:00,
2013-03-06 14:08:00,38.0,21.5,30.38,ESE,107,3.0,7.0,51,0.00,,,0.00,VWS V14.00,2013-03-06 20:08:00,
2013-03-06 14:13:00,37.8,21.3,30.38,ENE,78,4.0,10.0,51,0.00,,,0.00,VWS V14.00,2013-03-06 20:13:00,
2013-03-06 14:18:00,38.0,21.5,30.37,ESE,103,0.0,10.0,51,0.00,,,0.00,VWS V14.00,2013-03-06 20:18:00,
2013-03-06 14:23:00,37.9,20.9,30.37,SE,132,3.0,10.0,50,0.00,,,0.00,VWS V14.00,2013-03-06 20:23:00,
2013-03-06 14:28:00,38.2,21.7,30.37,SSE,149,1.0,10.0,51,0.00,,,0.00,VWS V14.00,2013-03-06 20:28:00,
2013-03-06 14:33:00,38.4,21.4,30.36,WSW,245,7.0,12.0,50,0.00,,,0.00,VWS V14.00,2013-03-06 20:33:00,
2013-03-06 14:38:00,38.5,21.5,30.36,SSE,152,3.0,5.0,50,0.00,,,0.00,VWS V14.00,2013-03-06 20:38:00,
2013-03-06 14:43:00,38.6,21.6,30.36,SSE,151,10.0,11.0,50,0.00,,,0.00,VWS V14.00,2013-03-06 20:43:00,
2013-03-06 14:48:00,38.6,21.6,30.35,SE,143,1.0,13.0,50,0.00,,,0.00,VWS V14.00,2013-03-06 20:48:00,
2013-03-06 14:53:00,38.6,21.6,30.35,ESE,111,2.0,13.0,50,0.00,,,0.00,VWS V14.00,2013-03-06 20:53:00,
2013-03-06 14:58:00,39.0,21.5,30.35,ESE,114,0.0,13.0,49,0.00,,,0.00,VWS V14.00,2013-03-06 20:58:00,
2013-03-06 15:03:00,39.3,21.8,30.35,SSE,157,3.0,13.0,49,0.00,,,0.00,VWS V14.00,2013-03-06 21:03:00,
2013-03-06 15:08:00,39.3,21.3,30.35,SE,134,0.0,9.0,48,0.00,,,0.00,VWS V14.00,2013-03-06 21:08:00,
2013-03-06 15:13:00,39.3,21.3,30.35,ESE,111,1.0,13.0,48,0.00,,,0.00,VWS V14.00,2013-03-06 21:13:00,
2013-03-06 15:18:00,39.2,21.2,30.34,East,100,7.0,13.0,48,0.00,,,0.00,VWS V14.00,2013-03-06 21:18:00,
2013-03-06 15:23:00,39.2,21.2,30.34,SE,134,5.0,14.0,48,0.00,,,0.00,VWS V14.00,2013-03-06 21:23:00,
2013-03-06 15:28:00,39.3,21.3,30.34,SSE,156,7.0,14.0,48,0.00,,,0.00,VWS V14.00,2013-03-06 21:28:00,
2013-03-06 15:33:00,39.7,21.6,30.33,ESE,122,1.0,14.0,48,0.00,,,0.00,VWS V14.00,2013-03-06 21:33:00,
2013-03-06 15:38:00,39.6,21.5,30.33,ESE,104,10.0,13.0,48,0.00,,,0.00,VWS V14.00,2013-03-06 21:38:00,
2013-03-06 15:43:00,39.5,21.5,30.33,ESE,102,4.0,15.0,48,0.00,,,0.00,VWS V14.00,2013-03-06 21:43:00,
2013-03-06 15:48:00,39.7,21.6,30.33,ESE,105,6.0,15.0,48,0.00,,,0.00,VWS V14.00,2013-03-06 21:48:00,
2013-03-06 15:53:00,39.7,21.1,30.32,SE,132,9.0,18.0,47,0.00,,,0.00,VWS V14.00,2013-03-06 21:53:00,
2013-03-06 15:58:00,39.7,21.1,30.32,ESE,113,3.0,18.0,47,0.00,,,0.00,VWS V14.00,2013-03-06 21:58:00,
2013-03-06 16:03:00,39.8,20.7,30.32,SE,125,13.0,18.0,46,0.00,,,0.00,VWS V14.00,2013-03-06 22:03:00,
2013-03-06 16:08:00,39.7,21.1,30.32,ESE,119,5.0,13.0,47,0.00,,,0.00,VWS V14.00,2013-03-06 22:08:00,
2013-03-06 16:13:00,39.6,20.5,30.31,SE,138,0.0,14.0,46,0.00,,,0.00,VWS V14.00,2013-03-06 22:13:00,
2013-03-06 16:18:00,39.7,20.6,30.31,SE,143,10.0,15.0,46,0.00,,,0.00,VWS V14.00,2013-03-06 22:18:00,
2013-03-06 16:23:00,39.7,20.6,30.31,ESE,119,9.0,15.0,46,0.00,,,0.00,VWS V14.00,2013-03-06 22:23:00,
2013-03-06 16:28:00,40.0,20.9,30.31,East,95,1.0,15.0,46,0.00,,,0.00,VWS V14.00,2013-03-06 22:28:00,
2013-03-06 16:33:00,40.2,21.1,30.31,ESE,123,3.0,15.0,46,0.00,,,0.00,VWS V14.00,2013-03-06 22:33:00,
2013-03-06 16:38:00,40.3,21.2,30.31,East,88,12.0,12.0,46,0.00,,,0.00,VWS V14.00,2013-03-06 22:38:00,
2013-03-06 16:43:00,40.0,20.4,30.31,East,101,1.0,12.0,45,0.00,,,0.00,VWS V14.00,2013-03-06 22:43:00,
2013-03-06 16:48:00,39.8,20.2,30.30,SSW,207,1.0,13.0,45,0.00,,,0.00,VWS V14.00,2013-03-06 22:48:00,
2013-03-06 16:53:00,39.8,20.7,30.30,SE,144,8.0,15.0,46,0.00,,,0.00,VWS V14.00,2013-03-06 22:53:00,
2013-03-06 16:58:00,39.6,20.5,30.30,ESE,114,2.0,15.0,46,0.00,,,0.00,VWS V14.00,2013-03-06 22:58:00,
2013-03-06 17:03:00,39.6,20.5,30.30,East,98,4.0,15.0,46,0.00,,,0.00,VWS V14.00,2013-03-06 23:03:00,
2013-03-06 17:07:00,39.4,20.4,30.30,ENE,62,5.0,14.0,46,0.00,,,0.00,VWS V14.00,2013-03-06 23:07:00,
2013-03-06 17:12:00,39.4,20.4,30.29,East,91,2.0,14.0,46,0.00,,,0.00,VWS V14.00,2013-03-06 23:12:00,
2013-03-06 17:17:00,39.3,20.8,30.29,ESE,115,4.0,14.0,47,0.00,,,0.00,VWS V14.00,2013-03-06 23:17:00,
2013-03-06 17:22:00,39.3,20.8,30.29,East,94,11.0,16.0,47,0.00,,,0.00,VWS V14.00,2013-03-06 23:22:00,
2013-03-06 17:27:00,39.0,21.0,30.29,ESE,107,5.0,16.0,48,0.00,,,0.00,VWS V14.00,2013-03-06 23:27:00,
2013-03-06 17:32:00,38.8,21.3,30.29,East,101,0.0,16.0,49,0.00,,,0.00,VWS V14.00,2013-03-06 23:32:00,
2013-03-06 17:37:00,38.8,21.3,30.29,ENE,70,0.0,11.0,49,0.00,,,0.00,VWS V14.00,2013-03-06 23:37:00,
2013-03-06 17:42:00,38.6,21.6,30.29,ESE,117,4.0,12.0,50,0.00,,,0.00,VWS V14.00,2013-03-06 23:42:00,
2013-03-06 17:47:00,38.3,21.3,30.29,SE,131,13.0,13.0,50,0.00,,,0.00,VWS V14.00,2013-03-06 23:47:00,
2013-03-06 17:52:00,38.0,21.5,30.29,ESE,110,4.0,13.0,51,0.00,,,0.00,VWS V14.00,2013-03-06 23:52:00,
2013-03-06 17:57:00,37.7,21.2,30.28,ESE,105,4.0,13.0,51,0.00,,,0.00,VWS V14.00,2013-03-06 23:57:00,
2013-03-06 18:02:00,37.5,21.5,30.28,SE,126,4.0,13.0,52,0.00,,,0.00,VWS V14.00,2013-03-07 00:02:00,
2013-03-06 18:07:00,37.1,21.1,30.28,ESE,118,7.0,12.0,52,0.00,,,0.00,VWS V14.00,2013-03-07 00:07:00,
2013-03-06 18:12:00,36.9,21.4,30.28,SE,133,5.0,15.0,53,0.00,,,0.00,VWS V14.00,2013-03-07 00:12:00,
2013-03-06 18:17:00,36.5,21.5,30.28,SE,132,4.0,15.0,54,0.00,,,0.00,VWS V14.00,2013-03-07 00:17:00,
2013-03-06 18:22:00,36.2,21.6,30.28,SSE,157,6.0,15.0,55,0.00,,,0.00,VWS V14.00,2013-03-07 00:22:00,
2013-03-06 18:27:00,35.8,21.2,30.28,ESE,105,5.0,15.0,55,0.00,,,0.00,VWS V14.00,2013-03-07 00:27:00,
2013-03-06 18:32:00,35.5,21.4,30.28,East,80,0.0,15.0,56,0.00,,,0.00,VWS V14.00,2013-03-07 00:32:00,
2013-03-06 18:37:00,35.1,21.4,30.28,ESE,121,4.0,9.0,57,0.00,,,0.00,VWS V14.00,2013-03-07 00:37:00,
2013-03-06 18:42:00,34.8,21.5,30.28,East,88,1.0,9.0,58,0.00,,,0.00,VWS V14.00,2013-03-07 00:42:00,
2013-03-06 18:47:00,34.4,21.2,30.28,ESE,113,2.0,9.0,58,0.00,,,0.00,VWS V14.00,2013-03-07 00:47:00,
2013-03-06 18:52:00,34.4,21.6,30.28,ESE,113,4.0,9.0,59,0.00,,,0.00,VWS V14.00,2013-03-07 00:52:00,
2013-03-06 18:57:00,34.1,21.3,30.29,ESE,107,4.0,9.0,59,0.00,,,0.00,VWS V14.00,2013-03-07 00:57:00,
2013-03-06 19:02:00,33.8,21.4,30.28,ESE,109,1.0,9.0,60,0.00,,,0.00,VWS V14.00,2013-03-07 01:02:00,
2013-03-06 19:07:00,33.6,21.2,30.28,East,89,4.0,6.0,60,0.00,,,0.00,VWS V14.00,2013-03-07 01:07:00,
2013-03-06 19:12:00,33.4,21.4,30.28,ESE,123,1.0,7.0,61,0.00,,,0.00,VWS V14.00,2013-03-07 01:12:00,
2013-03-06 19:17:00,33.2,21.2,30.28,ENE,72,3.0,10.0,61,0.00,,,0.00,VWS V14.00,2013-03-07 01:17:00,
2013-03-06 19:22:00,33.1,21.1,30.28,SE,136,6.0,10.0,61,0.00,,,0.00,VWS V14.00,2013-03-07 01:22:00,
2013-03-06 19:27:00,32.9,21.3,30.28,SSE,167,6.0,10.0,62,0.00,,,0.00,VWS V14.00,2013-03-07 01:27:00,
2013-03-06 19:32:00,32.7,21.1,30.28,East,96,0.0,10.0,62,0.00,,,0.00,VWS V14.00,2013-03-07 01:32:00,
2013-03-06 19:37:00,32.5,21.3,30.28,ESE,107,0.0,6.0,63,0.00,,,0.00,VWS V14.00,2013-03-07 01:37:00,
2013-03-06 19:42:00,32.2,21.0,30.28,ESE,107,4.0,6.0,63,0.00,,,0.00,VWS V14.00,2013-03-07 01:42:00,
2013-03-06 19:47:00,32.0,21.2,30.28,East,82,0.0,7.0,64,0.00,,,0.00,VWS V14.00,2013-03-07 01:47:00,
2013-03-06 19:52:00,31.8,21.0,30.28,East,98,6.0,7.0,64,0.00,,,0.00,VWS V14.00,2013-03-07 01:52:00,
2013-03-06 19:57:00,31.6,21.2,30.28,ESE,111,0.0,7.0,65,0.00,,,0.00,VWS V14.00,2013-03-07 01:57:00,
2013-03-06 20:02:00,31.6,21.2,30.28,ESE,105,4.0,7.0,65,0.00,,,0.00,VWS V14.00,2013-03-07 02:02:00,
2013-03-06 20:07:00,31.5,21.1,30.27,ESE,111,9.0,11.0,65,0.00,,,0.00,VWS V14.00,2013-03-07 02:07:00,
2013-03-06 20:12:00,31.5,21.1,30.27,SE,125,7.0,13.0,65,0.00,,,0.00,VWS V14.00,2013-03-07 02:12:00,
2013-03-06 20:17:00,31.5,21.1,30.27,East,99,9.0,13.0,65,0.00,,,0.00,VWS V14.00,2013-03-07 02:17:00,
2013-03-06 20:22:00,31.5,21.5,30.27,SE,126,6.0,13.0,66,0.00,,,0.00,VWS V14.00,2013-03-07 02:22:00,
2013-03-06 20:27:00,31.5,21.5,30.27,ESE,115,0.0,13.0,66,0.00,,,0.00,VWS V14.00,2013-03-07 02:27:00,
2013-03-06 20:32:00,31.4,21.4,30.27,ESE,117,6.0,13.0,66,0.00,,,0.00,VWS V14.00,2013-03-07 02:32:00,
2013-03-06 20:37:00,31.3,21.6,30.27,SE,125,0.0,5.0,67,0.00,,,0.00,VWS V14.00,2013-03-07 02:37:00,
2013-03-06 20:42:00,31.2,21.5,30.27,ESE,110,5.0,9.0,67,0.00,,,0.00,VWS V14.00,2013-03-07 02:42:00,
2013-03-06 20:47:00,31.0,21.3,30.27,South,176,4.0,9.0,67,0.00,,,0.00,VWS V14.00,2013-03-07 02:47:00,
2013-03-06 20:52:00,31.0,21.3,30.27,ESE,109,4.0,12.0,67,0.00,,,0.00,VWS V14.00,2013-03-07 02:52:00,
2013-03-06 20:57:00,31.0,21.3,30.27,SE,144,5.0,12.0,67,0.00,,,0.00,VWS V14.00,2013-03-07 02:57:00,
2013-03-06 21:02:00,30.9,21.6,30.27,ESE,111,5.0,12.0,68,0.00,,,0.00,VWS V14.00,2013-03-07 03:02:00,
2013-03-06 21:07:00,30.8,21.5,30.27,ESE,112,12.0,13.0,68,0.00,,,0.00,VWS V14.00,2013-03-07 03:07:00,
2013-03-06 21:12:00,30.7,21.4,30.27,SSE,153,2.0,13.0,68,0.00,,,0.00,VWS V14.00,2013-03-07 03:12:00,
2013-03-06 21:17:00,30.6,21.3,30.27,East,90,7.0,13.0,68,0.00,,,0.00,VWS V14.00,2013-03-07 03:17:00,
2013-03-06 21:22:00,30.5,21.6,30.26,ESE,104,9.0,13.0,69,0.00,,,0.00,VWS V14.00,2013-03-07 03:22:00,
2013-03-06 21:27:00,30.4,21.5,30.26,SE,128,4.0,14.0,69,0.00,,,0.00,VWS V14.00,2013-03-07 03:27:00,
2013-03-06 21:32:00,30.3,21.4,30.27,SE,130,2.0,14.0,69,0.00,,,0.00,VWS V14.00,2013-03-07 03:32:00,
2013-03-06 21:37:00,30.3,21.4,30.27,ESE,121,6.0,13.0,69,0.00,,,0.00,VWS V14.00,2013-03-07 03:37:00,
2013-03-06 21:42:00,30.1,21.5,30.27,SE,145,2.0,13.0,70,0.00,,,0.00,VWS V14.00,2013-03-07 03:42:00,
2013-03-06 21:47:00,30.0,21.4,30.27,East,101,0.0,13.0,70,0.00,,,0.00,VWS V14.00,2013-03-07 03:47:00,
2013-03-06 21:52:00,29.7,21.5,30.27,ESE,113,0.0,13.0,71,0.00,,,0.00,VWS V14.00,2013-03-07 03:52:00,
2013-03-06 21:57:00,29.5,21.3,30.27,SE,130,7.0,13.0,71,0.00,,,0.00,VWS V14.00,2013-03-07 03:57:00,
2013-03-06 22:02:00,29.4,21.2,30.27,ESE,118,6.0,13.0,71,0.00,,,0.00,VWS V14.00,2013-03-07 04:02:00,
2013-03-06 22:07:00,29.3,21.4,30.27,ESE,109,4.0,9.0,72,0.00,,,0.00,VWS V14.00,2013-03-07 04:07:00,
2013-03-06 22:12:00,29.2,21.3,30.27,East,101,5.0,9.0,72,0.00,,,0.00,VWS V14.00,2013-03-07 04:12:00,
2013-03-06 22:17:00,29.0,21.1,30.27,ESE,106,0.0,9.0,72,0.00,,,0.00,VWS V14.00,2013-03-07 04:17:00,
2013-03-06 22:22:00,28.9,21.4,30.27,SE,128,2.0,11.0,73,0.00,,,0.00,VWS V14.00,2013-03-07 04:22:00,
2013-03-06 22:27:00,28.8,21.2,30.27,ESE,118,6.0,11.0,73,0.00,,,0.00,VWS V14.00,2013-03-07 04:27:00,
2013-03-06 22:32:00,28.8,21.2,30.28,East,89,0.0,11.0,73,0.00,,,0.00,VWS V14.00,2013-03-07 04:32:00,
2013-03-06 22:37:00,28.8,21.6,30.28,SE,130,2.0,6.0,74,0.00,,,0.00,VWS V14.00,2013-03-07 04:37:00,
2013-03-06 22:42:00,28.8,21.6,30.27,East,86,8.0,11.0,74,0.00,,,0.00,VWS V14.00,2013-03-07 04:42:00,
2013-03-06 22:47:00,28.8,21.6,30.27,ESE,109,6.0,12.0,74,0.00,,,0.00,VWS V14.00,2013-03-07 04:47:00,
2013-03-06 22:52:00,28.8,21.6,30.27,SE,133,9.0,12.0,74,0.00,,,0.00,VWS V14.00,2013-03-07 04:52:00,
2013-03-06 22:57:00,28.8,21.6,30.27,SE,138,5.0,12.0,74,0.00,,,0.00,VWS V14.00,2013-03-07 04:57:00,
2013-03-06 23:00:00,28.8,21.6,30.27,SE,126,6.0,12.0,74,0.00,,,0.00,VWS V14.00,2013-03-07 05:00:00,
2013-03-06 23:02:00,28.8,21.6,30.27,SE,128,2.0,12.0,74,0.00,,,0.00,VWS V14.00,2013-03-07 05:02:00,
2013-03-06 23:07:00,28.7,21.8,30.27,ESE,115,5.0,9.0,75,0.00,,,0.00,VWS V14.00,2013-03-07 05:07:00,
2013-03-06 23:12:00,28.5,21.6,30.27,ESE,113,6.0,11.0,75,0.00,,,0.00,VWS V14.00,2013-03-07 05:12:00,
2013-03-06 23:17:00,28.5,21.6,30.27,SE,130,4.0,13.0,75,0.00,,,0.00,VWS V14.00,2013-03-07 05:17:00,
2013-03-06 23:22:00,28.4,21.5,30.27,ESE,118,6.0,13.0,75,0.00,,,0.00,VWS V14.00,2013-03-07 05:22:00,
2013-03-06 23:27:00,28.3,21.4,30.27,SE,128,5.0,13.0,75,0.00,,,0.00,VWS V14.00,2013-03-07 05:27:00,
2013-03-06 23:32:00,28.1,21.5,30.27,SE,130,9.0,13.0,76,0.00,,,0.00,VWS V14.00,2013-03-07 05:32:00,
2013-03-06 23:37:00,28.0,21.4,30.27,SE,130,3.0,12.0,76,0.00,,,0.00,VWS V14.00,2013-03-07 05:37:00,
2013-03-06 23:42:00,27.8,21.2,30.27,ESE,103,4.0,12.0,76,0.00,,,0.00,VWS V14.00,2013-03-07 05:42:00,
2013-03-06 23:47:00,27.7,21.4,30.28,ESE,119,0.0,12.0,77,0.00,,,0.00,VWS V14.00,2013-03-07 05:47:00,
2013-03-06 23:52:00,27.5,21.2,30.28,East,88,3.0,12.0,77,0.00,,,0.00,VWS V14.00,2013-03-07 05:52:00,
2013-03-06 23:57:00,27.4,21.1,30.28,ESE,119,0.0,12.0,77,0.00,,,0.00,VWS V14.00,2013-03-07 05:57:00,